Aeroporto :
LOGIN :

Iscrizione | Disclaimer

   EN    FR    IT 

 










Sommario :    VFR   VFR Marginale   IFR   IFR Intensivo   IFR Molto Intensivo
Visibilità : 
Base nubi : 
>= 8 km
>= 3000ft
5 / 8 km
1000 / 3000 ft
1500m / 5 km
500 / 1000 ft
800 / 1500m
200 / 500 ft
< 800m
< 200 ft
Simboli :   Temporali  Nebbia  Neve Forte  Precipitazioni Forti  Vento > 20 kt
SIGMETs :   Varie  Temporali  Ghiacco  Turbolenza  Onda orograficha  Ceneri Vulcaniche






- Altitudine del aeroporto : 24 ft
- Codice IATA : IBZ


LEIB - Ibiza

ULTIMO METAR :
  • 021330Z 32009KT 290V350 9999 FEW011 SCT017 BKN028 15/12 Q1010 NOSIG

METARs OBSOLETI :
  • 021300Z 33013KT 300V010 9999 FEW014 SCT019 BKN022 15/11 Q1010 NOSIG
  • 021230Z 33012KT 290V010 9999 FEW016 BKN019 15/11 Q1010 NOSIG
  • 021200Z 32010KT 280V360 9999 SCT016 BKN020 15/11 Q1010 NOSIG
  • 021130Z 34012KT 300V010 9999 BKN016 15/11 Q1010 NOSIG
  • 021100Z 33014KT 290V020 9999 SCT015 BKN020 15/11 Q1010 NOSIG

TAF TAF LEIB
Valido dal 02 a 09 ore il 03 a 09 ore UTC


020800Z 0209/0309 33012KT 9999 BKN025 TX16/0212Z TN09/0306Z
PROB40
TEMPO 0209/0224 4000 SHRA BKN010 SCT020TCU
PROB30
TEMPO 0209/0215 2000 TSRA FEW020CB
BECMG 0214/0216 01012KT



MetMap, La meteo Aeronautica in un colpo d'occhio ! - Copyright ORBIFLY Dicembre 2007 - Disclaimer

ORBIFLY MET'MAP TEAM :

Programmazione e sviluppo : Alexandra Zaïnal
Concezione : Baudouin d'Aumeries
Aiuto per la programmazione : Marc-Olivier Méhu
Supporto tecnico e logistico : Manuel Goepfert
Aiuto per la traduzione : Arnaldo La Scala

Contatto : metmap@orbifly.com




FONTI E CREDITI :

   NOAA